sensor_id;sensor_type;location;lat;lon;timestamp;P1;P2;P0
38288;PMS5003;24092;53.370;-6.588;2023-10-13T00:01:06;5;5;
38288;PMS5003;24092;53.370;-6.588;2023-10-13T00:03:33;5;4;
38288;PMS5003;24092;53.370;-6.588;2023-10-13T00:06:00;5;5;
38288;PMS5003;24092;53.370;-6.588;2023-10-13T00:08:27;5;5;
38288;PMS5003;24092;53.370;-6.588;2023-10-13T00:10:55;5;5;
38288;PMS5003;24092;53.370;-6.588;2023-10-13T00:13:23;4;4;
38288;PMS5003;24092;53.370;-6.588;2023-10-13T00:15:51;5;5;
38288;PMS5003;24092;53.370;-6.588;2023-10-13T00:18:18;7;5;
38288;PMS5003;24092;53.370;-6.588;2023-10-13T00:20:45;8;7;
38288;PMS5003;24092;53.370;-6.588;2023-10-13T00:23:12;4;4;
38288;PMS5003;24092;53.370;-6.588;2023-10-13T00:25:39;6;5;
38288;PMS5003;24092;53.370;-6.588;2023-10-13T00:28:06;5;5;
38288;PMS5003;24092;53.370;-6.588;2023-10-13T00:30:33;4;4;
38288;PMS5003;24092;53.370;-6.588;2023-10-13T00:33:00;5;5;
38288;PMS5003;24092;53.370;-6.588;2023-10-13T00:35:28;4;4;
38288;PMS5003;24092;53.370;-6.588;2023-10-13T00:37:56;6;5;
38288;PMS5003;24092;53.370;-6.588;2023-10-13T00:40:23;6;5;
38288;PMS5003;24092;53.370;-6.588;2023-10-13T00:42:52;6;5;
38288;PMS5003;24092;53.370;-6.588;2023-10-13T00:45:20;6;6;
38288;PMS5003;24092;53.370;-6.588;2023-10-13T00:47:48;4;3;
38288;PMS5003;24092;53.370;-6.588;2023-10-13T00:50:16;7;5;
38288;PMS5003;24092;53.370;-6.588;2023-10-13T00:52:44;5;4;
38288;PMS5003;24092;53.370;-6.588;2023-10-13T00:55:14;4;4;
38288;PMS5003;24092;53.370;-6.588;2023-10-13T00:57:42;5;5;
38288;PMS5003;24092;53.370;-6.588;2023-10-13T01:00:09;7;7;
38288;PMS5003;24092;53.370;-6.588;2023-10-13T01:02:37;4;4;
38288;PMS5003;24092;53.370;-6.588;2023-10-13T01:05:04;4;3;
38288;PMS5003;24092;53.370;-6.588;2023-10-13T01:07:32;4;4;
38288;PMS5003;24092;53.370;-6.588;2023-10-13T01:09:59;5;4;
38288;PMS5003;24092;53.370;-6.588;2023-10-13T01:12:28;3;3;
38288;PMS5003;24092;53.370;-6.588;2023-10-13T01:14:55;5;5;
38288;PMS5003;24092;53.370;-6.588;2023-10-13T01:17:23;7;6;
38288;PMS5003;24092;53.370;-6.588;2023-10-13T01:19:50;4;4;
38288;PMS5003;24092;53.370;-6.588;2023-10-13T01:22:17;3;3;
38288;PMS5003;24092;53.370;-6.588;2023-10-13T01:24:43;6;4;
38288;PMS5003;24092;53.370;-6.588;2023-10-13T01:27:10;4;4;
38288;PMS5003;24092;53.370;-6.588;2023-10-13T01:29:37;5;5;
38288;PMS5003;24092;53.370;-6.588;2023-10-13T01:32:04;6;5;
38288;PMS5003;24092;53.370;-6.588;2023-10-13T01:34:32;5;5;
38288;PMS5003;24092;53.370;-6.588;2023-10-13T01:36:59;5;5;
38288;PMS5003;24092;53.370;-6.588;2023-10-13T01:39:27;5;3;
38288;PMS5003;24092;53.370;-6.588;2023-10-13T01:41:54;4;4;
38288;PMS5003;24092;53.370;-6.588;2023-10-13T01:44:22;5;4;
38288;PMS5003;24092;53.370;-6.588;2023-10-13T01:46:49;6;4;
38288;PMS5003;24092;53.370;-6.588;2023-10-13T01:49:16;4;4;
38288;PMS5003;24092;53.370;-6.588;2023-10-13T01:51:43;7;6;
38288;PMS5003;24092;53.370;-6.588;2023-10-13T01:54:10;4;4;
38288;PMS5003;24092;53.370;-6.588;2023-10-13T01:56:37;6;6;
38288;PMS5003;24092;53.370;-6.588;2023-10-13T01:59:04;5;5;
38288;PMS5003;24092;53.370;-6.588;2023-10-13T02:01:33;4;3;
38288;PMS5003;24092;53.370;-6.588;2023-10-13T02:04:00;7;6;
38288;PMS5003;24092;53.370;-6.588;2023-10-13T02:06:29;5;5;
38288;PMS5003;24092;53.370;-6.588;2023-10-13T02:08:56;6;4;
38288;PMS5003;24092;53.370;-6.588;2023-10-13T02:11:23;5;4;
38288;PMS5003;24092;53.370;-6.588;2023-10-13T02:13:50;6;5;
38288;PMS5003;24092;53.370;-6.588;2023-10-13T02:16:17;4;4;
38288;PMS5003;24092;53.370;-6.588;2023-10-13T02:18:44;4;4;
38288;PMS5003;24092;53.370;-6.588;2023-10-13T02:21:11;5;4;
38288;PMS5003;24092;53.370;-6.588;2023-10-13T02:23:38;6;6;
38288;PMS5003;24092;53.370;-6.588;2023-10-13T02:26:05;4;4;
38288;PMS5003;24092;53.370;-6.588;2023-10-13T02:28:32;5;4;
38288;PMS5003;24092;53.370;-6.588;2023-10-13T02:31:01;7;6;
38288;PMS5003;24092;53.370;-6.588;2023-10-13T02:33:29;4;4;
38288;PMS5003;24092;53.370;-6.588;2023-10-13T02:35:57;6;5;
38288;PMS5003;24092;53.370;-6.588;2023-10-13T02:38:25;5;5;
38288;PMS5003;24092;53.370;-6.588;2023-10-13T02:40:52;9;7;
38288;PMS5003;24092;53.370;-6.588;2023-10-13T02:43:21;6;5;
38288;PMS5003;24092;53.370;-6.588;2023-10-13T02:45:55;3;3;
38288;PMS5003;24092;53.370;-6.588;2023-10-13T02:48:22;4;4;
38288;PMS5003;24092;53.370;-6.588;2023-10-13T02:50:55;6;6;
38288;PMS5003;24092;53.370;-6.588;2023-10-13T02:53:23;3;3;
38288;PMS5003;24092;53.370;-6.588;2023-10-13T02:55:50;4;4;
38288;PMS5003;24092;53.370;-6.588;2023-10-13T02:58:19;4;4;
38288;PMS5003;24092;53.370;-6.588;2023-10-13T03:00:45;5;5;
38288;PMS5003;24092;53.370;-6.588;2023-10-13T03:03:12;6;5;
38288;PMS5003;24092;53.370;-6.588;2023-10-13T03:05:39;7;7;
38288;PMS5003;24092;53.370;-6.588;2023-10-13T03:08:06;6;6;
38288;PMS5003;24092;53.370;-6.588;2023-10-13T03:10:33;8;7;
38288;PMS5003;24092;53.370;-6.588;2023-10-13T03:13:00;7;7;
38288;PMS5003;24092;53.370;-6.588;2023-10-13T03:15:30;7;7;
38288;PMS5003;24092;53.370;-6.588;2023-10-13T03:17:57;8;7;
38288;PMS5003;24092;53.370;-6.588;2023-10-13T03:20:24;11;10;
38288;PMS5003;24092;53.370;-6.588;2023-10-13T03:22:52;16;15;
38288;PMS5003;24092;53.370;-6.588;2023-10-13T03:25:19;12;11;
38288;PMS5003;24092;53.370;-6.588;2023-10-13T03:27:46;11;10;
38288;PMS5003;24092;53.370;-6.588;2023-10-13T03:30:13;10;10;
38288;PMS5003;24092;53.370;-6.588;2023-10-13T03:32:41;12;11;
38288;PMS5003;24092;53.370;-6.588;2023-10-13T03:35:08;15;11;
38288;PMS5003;24092;53.370;-6.588;2023-10-13T03:37:35;12;10;
38288;PMS5003;24092;53.370;-6.588;2023-10-13T03:40:03;17;16;
38288;PMS5003;24092;53.370;-6.588;2023-10-13T03:42:31;14;13;
38288;PMS5003;24092;53.370;-6.588;2023-10-13T03:44:58;16;14;
38288;PMS5003;24092;53.370;-6.588;2023-10-13T03:47:25;13;12;
38288;PMS5003;24092;53.370;-6.588;2023-10-13T03:49:53;16;14;
38288;PMS5003;24092;53.370;-6.588;2023-10-13T03:52:20;16;13;
38288;PMS5003;24092;53.370;-6.588;2023-10-13T03:54:47;13;13;
38288;PMS5003;24092;53.370;-6.588;2023-10-13T03:57:14;11;10;
38288;PMS5003;24092;53.370;-6.588;2023-10-13T03:59:41;11;10;
38288;PMS5003;24092;53.370;-6.588;2023-10-13T04:02:08;9;9;
38288;PMS5003;24092;53.370;-6.588;2023-10-13T04:04:35;8;7;
38288;PMS5003;24092;53.370;-6.588;2023-10-13T04:07:02;9;8;
38288;PMS5003;24092;53.370;-6.588;2023-10-13T04:09:30;2;2;
38288;PMS5003;24092;53.370;-6.588;2023-10-13T04:11:57;3;3;
38288;PMS5003;24092;53.370;-6.588;2023-10-13T04:14:25;5;4;
38288;PMS5003;24092;53.370;-6.588;2023-10-13T04:16:51;1;1;
38288;PMS5003;24092;53.370;-6.588;2023-10-13T04:19:18;2;1;
38288;PMS5003;24092;53.370;-6.588;2023-10-13T04:21:46;1;1;
38288;PMS5003;24092;53.370;-6.588;2023-10-13T04:24:13;2;2;
38288;PMS5003;24092;53.370;-6.588;2023-10-13T04:26:40;1;1;
38288;PMS5003;24092;53.370;-6.588;2023-10-13T04:29:07;1;1;
38288;PMS5003;24092;53.370;-6.588;2023-10-13T04:31:34;1;1;
38288;PMS5003;24092;53.370;-6.588;2023-10-13T04:34:01;1;1;
38288;PMS5003;24092;53.370;-6.588;2023-10-13T04:36:28;1;1;
38288;PMS5003;24092;53.370;-6.588;2023-10-13T04:38:55;2;1;
38288;PMS5003;24092;53.370;-6.588;2023-10-13T04:41:24;2;2;
38288;PMS5003;24092;53.370;-6.588;2023-10-13T04:43:52;1;1;
38288;PMS5003;24092;53.370;-6.588;2023-10-13T04:46:19;1;1;
38288;PMS5003;24092;53.370;-6.588;2023-10-13T04:48:46;1;1;
38288;PMS5003;24092;53.370;-6.588;2023-10-13T04:51:13;0;0;
38288;PMS5003;24092;53.370;-6.588;2023-10-13T04:53:40;2;1;
38288;PMS5003;24092;53.370;-6.588;2023-10-13T04:56:07;1;1;
38288;PMS5003;24092;53.370;-6.588;2023-10-13T04:58:34;1;1;
38288;PMS5003;24092;53.370;-6.588;2023-10-13T05:01:01;0;0;
38288;PMS5003;24092;53.370;-6.588;2023-10-13T05:03:28;1;1;
38288;PMS5003;24092;53.370;-6.588;2023-10-13T05:05:54;1;0;
38288;PMS5003;24092;53.370;-6.588;2023-10-13T05:08:21;1;0;
38288;PMS5003;24092;53.370;-6.588;2023-10-13T05:10:48;0;0;
38288;PMS5003;24092;53.370;-6.588;2023-10-13T05:13:15;1;1;
38288;PMS5003;24092;53.370;-6.588;2023-10-13T05:15:43;1;0;
38288;PMS5003;24092;53.370;-6.588;2023-10-13T05:18:10;2;0;
38288;PMS5003;24092;53.370;-6.588;2023-10-13T05:20:37;1;1;
38288;PMS5003;24092;53.370;-6.588;2023-10-13T05:23:04;0;0;
38288;PMS5003;24092;53.370;-6.588;2023-10-13T05:25:34;2;1;
38288;PMS5003;24092;53.370;-6.588;2023-10-13T05:28:01;0;0;
38288;PMS5003;24092;53.370;-6.588;2023-10-13T05:30:29;1;1;
38288;PMS5003;24092;53.370;-6.588;2023-10-13T05:32:58;1;1;
38288;PMS5003;24092;53.370;-6.588;2023-10-13T05:35:25;1;1;
38288;PMS5003;24092;53.370;-6.588;2023-10-13T05:37:52;1;1;
38288;PMS5003;24092;53.370;-6.588;2023-10-13T05:40:19;1;1;
38288;PMS5003;24092;53.370;-6.588;2023-10-13T05:42:46;1;0;
38288;PMS5003;24092;53.370;-6.588;2023-10-13T05:45:13;2;1;
38288;PMS5003;24092;53.370;-6.588;2023-10-13T05:47:39;1;1;
38288;PMS5003;24092;53.370;-6.588;2023-10-13T05:50:08;1;1;
38288;PMS5003;24092;53.370;-6.588;2023-10-13T05:52:35;1;1;
38288;PMS5003;24092;53.370;-6.588;2023-10-13T05:55:02;1;1;
38288;PMS5003;24092;53.370;-6.588;2023-10-13T05:57:30;1;1;
38288;PMS5003;24092;53.370;-6.588;2023-10-13T05:59:57;2;1;
38288;PMS5003;24092;53.370;-6.588;2023-10-13T06:02:24;0;0;
38288;PMS5003;24092;53.370;-6.588;2023-10-13T06:04:52;1;1;
38288;PMS5003;24092;53.370;-6.588;2023-10-13T06:07:18;4;2;
38288;PMS5003;24092;53.370;-6.588;2023-10-13T06:09:45;2;2;
38288;PMS5003;24092;53.370;-6.588;2023-10-13T06:13:55;0;0;
38288;PMS5003;24092;53.370;-6.588;2023-10-13T06:16:22;0;0;
38288;PMS5003;24092;53.370;-6.588;2023-10-13T06:18:49;1;1;
38288;PMS5003;24092;53.370;-6.588;2023-10-13T06:21:16;1;1;
38288;PMS5003;24092;53.370;-6.588;2023-10-13T06:23:44;1;1;
38288;PMS5003;24092;53.370;-6.588;2023-10-13T06:26:11;2;2;
38288;PMS5003;24092;53.370;-6.588;2023-10-13T06:28:38;0;0;
38288;PMS5003;24092;53.370;-6.588;2023-10-13T06:31:06;1;0;
38288;PMS5003;24092;53.370;-6.588;2023-10-13T06:33:39;3;2;
38288;PMS5003;24092;53.370;-6.588;2023-10-13T06:36:06;1;1;
38288;PMS5003;24092;53.370;-6.588;2023-10-13T06:38:33;0;0;
38288;PMS5003;24092;53.370;-6.588;2023-10-13T06:41:00;1;1;
38288;PMS5003;24092;53.370;-6.588;2023-10-13T06:43:27;2;1;
38288;PMS5003;24092;53.370;-6.588;2023-10-13T06:45:54;3;2;
38288;PMS5003;24092;53.370;-6.588;2023-10-13T06:48:21;2;1;
38288;PMS5003;24092;53.370;-6.588;2023-10-13T06:50:49;1;1;
38288;PMS5003;24092;53.370;-6.588;2023-10-13T06:53:17;1;1;
38288;PMS5003;24092;53.370;-6.588;2023-10-13T06:55:45;1;1;
38288;PMS5003;24092;53.370;-6.588;2023-10-13T06:58:12;0;0;
38288;PMS5003;24092;53.370;-6.588;2023-10-13T07:00:39;1;1;
38288;PMS5003;24092;53.370;-6.588;2023-10-13T07:03:06;1;1;
38288;PMS5003;24092;53.370;-6.588;2023-10-13T07:05:35;0;0;
38288;PMS5003;24092;53.370;-6.588;2023-10-13T07:08:02;1;1;
38288;PMS5003;24092;53.370;-6.588;2023-10-13T07:10:30;1;1;
38288;PMS5003;24092;53.370;-6.588;2023-10-13T07:12:57;2;1;
38288;PMS5003;24092;53.370;-6.588;2023-10-13T07:15:25;1;1;
38288;PMS5003;24092;53.370;-6.588;2023-10-13T07:17:52;1;1;
38288;PMS5003;24092;53.370;-6.588;2023-10-13T07:20:19;0;0;
38288;PMS5003;24092;53.370;-6.588;2023-10-13T07:22:48;1;1;
38288;PMS5003;24092;53.370;-6.588;2023-10-13T07:25:15;1;1;
38288;PMS5003;24092;53.370;-6.588;2023-10-13T07:27:42;1;1;
38288;PMS5003;24092;53.370;-6.588;2023-10-13T07:30:09;0;0;
38288;PMS5003;24092;53.370;-6.588;2023-10-13T07:32:37;0;0;
38288;PMS5003;24092;53.370;-6.588;2023-10-13T07:35:05;1;1;
38288;PMS5003;24092;53.370;-6.588;2023-10-13T07:37:32;1;1;
38288;PMS5003;24092;53.370;-6.588;2023-10-13T07:39:59;7;5;
38288;PMS5003;24092;53.370;-6.588;2023-10-13T07:42:26;1;1;
38288;PMS5003;24092;53.370;-6.588;2023-10-13T07:44:53;1;0;
38288;PMS5003;24092;53.370;-6.588;2023-10-13T07:47:20;3;3;
38288;PMS5003;24092;53.370;-6.588;2023-10-13T07:49:47;1;1;
38288;PMS5003;24092;53.370;-6.588;2023-10-13T07:52:15;2;2;
38288;PMS5003;24092;53.370;-6.588;2023-10-13T07:54:43;1;1;
38288;PMS5003;24092;53.370;-6.588;2023-10-13T07:57:10;1;0;
38288;PMS5003;24092;53.370;-6.588;2023-10-13T07:59:37;0;0;
38288;PMS5003;24092;53.370;-6.588;2023-10-13T08:02:05;1;1;
38288;PMS5003;24092;53.370;-6.588;2023-10-13T08:04:32;0;0;
38288;PMS5003;24092;53.370;-6.588;2023-10-13T08:07:00;2;1;
38288;PMS5003;24092;53.370;-6.588;2023-10-13T08:09:27;0;0;
38288;PMS5003;24092;53.370;-6.588;2023-10-13T08:11:54;1;0;
38288;PMS5003;24092;53.370;-6.588;2023-10-13T08:14:21;1;1;
38288;PMS5003;24092;53.370;-6.588;2023-10-13T08:16:49;1;1;
38288;PMS5003;24092;53.370;-6.588;2023-10-13T08:19:17;0;0;
38288;PMS5003;24092;53.370;-6.588;2023-10-13T08:21:46;0;0;
38288;PMS5003;24092;53.370;-6.588;2023-10-13T08:24:14;1;1;
38288;PMS5003;24092;53.370;-6.588;2023-10-13T08:26:41;1;1;
38288;PMS5003;24092;53.370;-6.588;2023-10-13T08:29:08;1;1;
38288;PMS5003;24092;53.370;-6.588;2023-10-13T08:31:35;1;1;
38288;PMS5003;24092;53.370;-6.588;2023-10-13T08:34:07;1;1;
38288;PMS5003;24092;53.370;-6.588;2023-10-13T08:36:34;1;1;
38288;PMS5003;24092;53.370;-6.588;2023-10-13T08:39:01;1;1;
38288;PMS5003;24092;53.370;-6.588;2023-10-13T08:41:28;0;0;
38288;PMS5003;24092;53.370;-6.588;2023-10-13T08:43:59;1;1;
38288;PMS5003;24092;53.370;-6.588;2023-10-13T08:46:30;2;1;
38288;PMS5003;24092;53.370;-6.588;2023-10-13T08:48:57;2;2;
38288;PMS5003;24092;53.370;-6.588;2023-10-13T08:51:25;0;0;
38288;PMS5003;24092;53.370;-6.588;2023-10-13T08:53:52;1;1;
38288;PMS5003;24092;53.370;-6.588;2023-10-13T08:56:21;0;0;
38288;PMS5003;24092;53.370;-6.588;2023-10-13T08:58:48;0;0;
38288;PMS5003;24092;53.370;-6.588;2023-10-13T09:01:17;1;1;
38288;PMS5003;24092;53.370;-6.588;2023-10-13T09:03:44;0;0;
38288;PMS5003;24092;53.370;-6.588;2023-10-13T09:06:12;2;2;
38288;PMS5003;24092;53.370;-6.588;2023-10-13T09:08:40;3;2;
38288;PMS5003;24092;53.370;-6.588;2023-10-13T09:11:07;0;0;
38288;PMS5003;24092;53.370;-6.588;2023-10-13T09:13:34;0;0;
38288;PMS5003;24092;53.370;-6.588;2023-10-13T09:16:08;2;1;
38288;PMS5003;24092;53.370;-6.588;2023-10-13T09:18:36;3;1;
38288;PMS5003;24092;53.370;-6.588;2023-10-13T09:21:03;0;0;
38288;PMS5003;24092;53.370;-6.588;2023-10-13T09:23:30;1;0;
38288;PMS5003;24092;53.370;-6.588;2023-10-13T09:25:57;1;1;
38288;PMS5003;24092;53.370;-6.588;2023-10-13T09:28:32;1;1;
38288;PMS5003;24092;53.370;-6.588;2023-10-13T09:30:59;2;2;
38288;PMS5003;24092;53.370;-6.588;2023-10-13T09:33:26;0;0;
38288;PMS5003;24092;53.370;-6.588;2023-10-13T09:35:54;1;1;
38288;PMS5003;24092;53.370;-6.588;2023-10-13T09:38:22;0;0;
38288;PMS5003;24092;53.370;-6.588;2023-10-13T09:40:50;1;1;
38288;PMS5003;24092;53.370;-6.588;2023-10-13T09:43:19;2;2;
38288;PMS5003;24092;53.370;-6.588;2023-10-13T09:45:47;1;1;
38288;PMS5003;24092;53.370;-6.588;2023-10-13T09:48:15;1;1;
38288;PMS5003;24092;53.370;-6.588;2023-10-13T09:50:46;3;2;
38288;PMS5003;24092;53.370;-6.588;2023-10-13T09:53:15;5;2;
38288;PMS5003;24092;53.370;-6.588;2023-10-13T09:55:44;4;3;
38288;PMS5003;24092;53.370;-6.588;2023-10-13T09:58:16;3;2;
38288;PMS5003;24092;53.370;-6.588;2023-10-13T10:00:46;4;3;
38288;PMS5003;24092;53.370;-6.588;2023-10-13T10:03:17;2;2;
38288;PMS5003;24092;53.370;-6.588;2023-10-13T10:05:54;1;0;
38288;PMS5003;24092;53.370;-6.588;2023-10-13T10:08:23;1;1;
38288;PMS5003;24092;53.370;-6.588;2023-10-13T10:10:55;1;1;
38288;PMS5003;24092;53.370;-6.588;2023-10-13T10:13:31;2;1;
38288;PMS5003;24092;53.370;-6.588;2023-10-13T10:16:08;8;3;
38288;PMS5003;24092;53.370;-6.588;2023-10-13T10:18:37;1;1;
38288;PMS5003;24092;53.370;-6.588;2023-10-13T10:21:04;4;3;
38288;PMS5003;24092;53.370;-6.588;2023-10-13T10:23:31;5;1;
38288;PMS5003;24092;53.370;-6.588;2023-10-13T10:26:08;1;1;
38288;PMS5003;24092;53.370;-6.588;2023-10-13T10:28:36;3;3;
38288;PMS5003;24092;53.370;-6.588;2023-10-13T10:31:04;7;6;
38288;PMS5003;24092;53.370;-6.588;2023-10-13T10:33:32;3;2;
38288;PMS5003;24092;53.370;-6.588;2023-10-13T10:35:59;6;5;
38288;PMS5003;24092;53.370;-6.588;2023-10-13T10:38:27;2;2;
38288;PMS5003;24092;53.370;-6.588;2023-10-13T10:40:55;0;0;
38288;PMS5003;24092;53.370;-6.588;2023-10-13T10:43:24;2;2;
38288;PMS5003;24092;53.370;-6.588;2023-10-13T10:45:53;1;1;
38288;PMS5003;24092;53.370;-6.588;2023-10-13T10:48:20;2;0;
38288;PMS5003;24092;53.370;-6.588;2023-10-13T10:50:55;1;1;
38288;PMS5003;24092;53.370;-6.588;2023-10-13T10:53:22;1;0;
38288;PMS5003;24092;53.370;-6.588;2023-10-13T10:55:50;4;2;
38288;PMS5003;24092;53.370;-6.588;2023-10-13T10:58:17;2;1;
38288;PMS5003;24092;53.370;-6.588;2023-10-13T11:00:43;0;0;
38288;PMS5003;24092;53.370;-6.588;2023-10-13T11:03:11;1;1;
38288;PMS5003;24092;53.370;-6.588;2023-10-13T11:05:46;1;1;
38288;PMS5003;24092;53.370;-6.588;2023-10-13T11:08:21;3;2;
38288;PMS5003;24092;53.370;-6.588;2023-10-13T11:10:49;2;1;
38288;PMS5003;24092;53.370;-6.588;2023-10-13T11:13:16;1;0;
38288;PMS5003;24092;53.370;-6.588;2023-10-13T11:15:43;6;4;
38288;PMS5003;24092;53.370;-6.588;2023-10-13T11:18:11;1;1;
38288;PMS5003;24092;53.370;-6.588;2023-10-13T11:20:41;5;3;
38288;PMS5003;24092;53.370;-6.588;2023-10-13T11:23:10;2;0;
38288;PMS5003;24092;53.370;-6.588;2023-10-13T11:25:37;1;1;
38288;PMS5003;24092;53.370;-6.588;2023-10-13T11:28:13;2;2;
38288;PMS5003;24092;53.370;-6.588;2023-10-13T11:30:41;2;1;
38288;PMS5003;24092;53.370;-6.588;2023-10-13T11:33:09;2;0;
38288;PMS5003;24092;53.370;-6.588;2023-10-13T11:35:38;1;0;
38288;PMS5003;24092;53.370;-6.588;2023-10-13T11:38:06;2;2;
38288;PMS5003;24092;53.370;-6.588;2023-10-13T11:40:33;1;1;
38288;PMS5003;24092;53.370;-6.588;2023-10-13T11:43:00;3;2;
38288;PMS5003;24092;53.370;-6.588;2023-10-13T11:45:27;0;0;
38288;PMS5003;24092;53.370;-6.588;2023-10-13T11:47:55;2;1;
38288;PMS5003;24092;53.370;-6.588;2023-10-13T11:50:22;0;0;
38288;PMS5003;24092;53.370;-6.588;2023-10-13T11:52:49;1;1;
38288;PMS5003;24092;53.370;-6.588;2023-10-13T11:55:16;1;1;
38288;PMS5003;24092;53.370;-6.588;2023-10-13T11:57:42;2;1;
38288;PMS5003;24092;53.370;-6.588;2023-10-13T12:00:10;1;0;
38288;PMS5003;24092;53.370;-6.588;2023-10-13T12:02:38;1;1;
38288;PMS5003;24092;53.370;-6.588;2023-10-13T12:05:05;1;1;
38288;PMS5003;24092;53.370;-6.588;2023-10-13T12:07:33;2;2;
38288;PMS5003;24092;53.370;-6.588;2023-10-13T12:10:00;0;0;
38288;PMS5003;24092;53.370;-6.588;2023-10-13T12:12:27;2;0;
38288;PMS5003;24092;53.370;-6.588;2023-10-13T12:14:55;0;0;
38288;PMS5003;24092;53.370;-6.588;2023-10-13T12:17:23;0;0;
38288;PMS5003;24092;53.370;-6.588;2023-10-13T12:19:52;0;0;
38288;PMS5003;24092;53.370;-6.588;2023-10-13T12:22:19;2;0;
38288;PMS5003;24092;53.370;-6.588;2023-10-13T12:24:46;2;1;
38288;PMS5003;24092;53.370;-6.588;2023-10-13T12:27:12;2;1;
38288;PMS5003;24092;53.370;-6.588;2023-10-13T12:29:39;1;1;
38288;PMS5003;24092;53.370;-6.588;2023-10-13T12:32:06;0;0;
38288;PMS5003;24092;53.370;-6.588;2023-10-13T12:34:34;0;0;
38288;PMS5003;24092;53.370;-6.588;2023-10-13T12:37:02;1;0;
38288;PMS5003;24092;53.370;-6.588;2023-10-13T12:39:30;2;2;
38288;PMS5003;24092;53.370;-6.588;2023-10-13T12:41:57;1;0;
38288;PMS5003;24092;53.370;-6.588;2023-10-13T12:44:24;0;0;
38288;PMS5003;24092;53.370;-6.588;2023-10-13T12:46:51;0;0;
38288;PMS5003;24092;53.370;-6.588;2023-10-13T12:49:18;0;0;
38288;PMS5003;24092;53.370;-6.588;2023-10-13T12:51:45;1;0;
38288;PMS5003;24092;53.370;-6.588;2023-10-13T12:54:12;1;0;
38288;PMS5003;24092;53.370;-6.588;2023-10-13T12:56:39;1;1;
38288;PMS5003;24092;53.370;-6.588;2023-10-13T12:59:07;0;0;
38288;PMS5003;24092;53.370;-6.588;2023-10-13T13:01:34;0;0;
38288;PMS5003;24092;53.370;-6.588;2023-10-13T13:04:01;1;0;
38288;PMS5003;24092;53.370;-6.588;2023-10-13T13:06:28;0;0;
38288;PMS5003;24092;53.370;-6.588;2023-10-13T13:08:56;0;0;
38288;PMS5003;24092;53.370;-6.588;2023-10-13T13:11:24;1;0;
38288;PMS5003;24092;53.370;-6.588;2023-10-13T13:13:51;1;0;
38288;PMS5003;24092;53.370;-6.588;2023-10-13T13:16:18;0;0;
38288;PMS5003;24092;53.370;-6.588;2023-10-13T13:18:46;0;0;
38288;PMS5003;24092;53.370;-6.588;2023-10-13T13:21:14;1;0;
38288;PMS5003;24092;53.370;-6.588;2023-10-13T13:23:41;1;0;
38288;PMS5003;24092;53.370;-6.588;2023-10-13T13:26:08;2;1;
38288;PMS5003;24092;53.370;-6.588;2023-10-13T13:28:35;1;0;
38288;PMS5003;24092;53.370;-6.588;2023-10-13T13:31:01;1;1;
38288;PMS5003;24092;53.370;-6.588;2023-10-13T13:33:28;3;1;
38288;PMS5003;24092;53.370;-6.588;2023-10-13T13:35:55;1;0;
38288;PMS5003;24092;53.370;-6.588;2023-10-13T13:38:22;0;0;
38288;PMS5003;24092;53.370;-6.588;2023-10-13T13:40:49;0;0;
38288;PMS5003;24092;53.370;-6.588;2023-10-13T13:43:16;1;1;
38288;PMS5003;24092;53.370;-6.588;2023-10-13T13:45:44;0;0;
38288;PMS5003;24092;53.370;-6.588;2023-10-13T13:48:11;1;0;
38288;PMS5003;24092;53.370;-6.588;2023-10-13T13:50:38;2;0;
38288;PMS5003;24092;53.370;-6.588;2023-10-13T13:53:05;0;0;
38288;PMS5003;24092;53.370;-6.588;2023-10-13T13:55:33;0;0;
38288;PMS5003;24092;53.370;-6.588;2023-10-13T13:58:00;0;0;
38288;PMS5003;24092;53.370;-6.588;2023-10-13T14:00:28;5;2;
38288;PMS5003;24092;53.370;-6.588;2023-10-13T14:02:55;1;0;
38288;PMS5003;24092;53.370;-6.588;2023-10-13T14:05:22;3;1;
38288;PMS5003;24092;53.370;-6.588;2023-10-13T14:07:49;0;0;
38288;PMS5003;24092;53.370;-6.588;2023-10-13T14:10:16;1;1;
38288;PMS5003;24092;53.370;-6.588;2023-10-13T14:12:45;1;0;
38288;PMS5003;24092;53.370;-6.588;2023-10-13T14:15:12;1;1;
38288;PMS5003;24092;53.370;-6.588;2023-10-13T14:17:39;1;1;
38288;PMS5003;24092;53.370;-6.588;2023-10-13T14:20:06;1;0;
38288;PMS5003;24092;53.370;-6.588;2023-10-13T14:22:34;2;1;
38288;PMS5003;24092;53.370;-6.588;2023-10-13T14:25:01;4;2;
38288;PMS5003;24092;53.370;-6.588;2023-10-13T14:27:29;1;0;
38288;PMS5003;24092;53.370;-6.588;2023-10-13T14:29:56;3;3;
38288;PMS5003;24092;53.370;-6.588;2023-10-13T14:32:23;2;0;
38288;PMS5003;24092;53.370;-6.588;2023-10-13T14:34:50;1;1;
38288;PMS5003;24092;53.370;-6.588;2023-10-13T14:37:18;1;0;
38288;PMS5003;24092;53.370;-6.588;2023-10-13T14:39:44;1;0;
38288;PMS5003;24092;53.370;-6.588;2023-10-13T14:42:11;0;0;
38288;PMS5003;24092;53.370;-6.588;2023-10-13T14:44:38;1;0;
38288;PMS5003;24092;53.370;-6.588;2023-10-13T14:47:06;0;0;
38288;PMS5003;24092;53.370;-6.588;2023-10-13T14:49:33;1;1;
38288;PMS5003;24092;53.370;-6.588;2023-10-13T14:51:59;1;0;
38288;PMS5003;24092;53.370;-6.588;2023-10-13T14:54:26;3;1;
38288;PMS5003;24092;53.370;-6.588;2023-10-13T14:56:54;2;0;
38288;PMS5003;24092;53.370;-6.588;2023-10-13T14:59:21;0;0;
38288;PMS5003;24092;53.370;-6.588;2023-10-13T15:01:47;1;1;
38288;PMS5003;24092;53.370;-6.588;2023-10-13T15:04:14;1;1;
38288;PMS5003;24092;53.370;-6.588;2023-10-13T15:06:41;2;0;
38288;PMS5003;24092;53.370;-6.588;2023-10-13T15:09:09;1;1;
38288;PMS5003;24092;53.370;-6.588;2023-10-13T15:11:35;2;1;
38288;PMS5003;24092;53.370;-6.588;2023-10-13T15:14:03;0;0;
38288;PMS5003;24092;53.370;-6.588;2023-10-13T15:16:32;1;0;
38288;PMS5003;24092;53.370;-6.588;2023-10-13T15:19:00;6;3;
38288;PMS5003;24092;53.370;-6.588;2023-10-13T15:21:27;1;0;
38288;PMS5003;24092;53.370;-6.588;2023-10-13T15:23:56;1;1;
38288;PMS5003;24092;53.370;-6.588;2023-10-13T15:26:23;0;0;
38288;PMS5003;24092;53.370;-6.588;2023-10-13T15:28:50;3;0;
38288;PMS5003;24092;53.370;-6.588;2023-10-13T15:31:16;0;0;
38288;PMS5003;24092;53.370;-6.588;2023-10-13T15:33:44;1;1;
38288;PMS5003;24092;53.370;-6.588;2023-10-13T15:36:17;1;1;
38288;PMS5003;24092;53.370;-6.588;2023-10-13T15:38:44;2;1;
38288;PMS5003;24092;53.370;-6.588;2023-10-13T15:41:11;0;0;
38288;PMS5003;24092;53.370;-6.588;2023-10-13T15:43:38;1;1;
38288;PMS5003;24092;53.370;-6.588;2023-10-13T15:46:08;1;1;
38288;PMS5003;24092;53.370;-6.588;2023-10-13T15:48:42;1;1;
38288;PMS5003;24092;53.370;-6.588;2023-10-13T15:51:10;0;0;
38288;PMS5003;24092;53.370;-6.588;2023-10-13T15:53:37;0;0;
38288;PMS5003;24092;53.370;-6.588;2023-10-13T15:56:06;2;0;
38288;PMS5003;24092;53.370;-6.588;2023-10-13T15:58:33;2;1;
38288;PMS5003;24092;53.370;-6.588;2023-10-13T16:01:00;1;0;
38288;PMS5003;24092;53.370;-6.588;2023-10-13T16:03:27;0;0;
38288;PMS5003;24092;53.370;-6.588;2023-10-13T16:05:56;1;1;
38288;PMS5003;24092;53.370;-6.588;2023-10-13T16:08:23;1;1;
38288;PMS5003;24092;53.370;-6.588;2023-10-13T16:10:49;0;0;
38288;PMS5003;24092;53.370;-6.588;2023-10-13T16:13:22;0;0;
38288;PMS5003;24092;53.370;-6.588;2023-10-13T16:15:49;0;0;
38288;PMS5003;24092;53.370;-6.588;2023-10-13T16:18:16;1;1;
38288;PMS5003;24092;53.370;-6.588;2023-10-13T16:20:44;0;0;
38288;PMS5003;24092;53.370;-6.588;2023-10-13T16:23:11;0;0;
38288;PMS5003;24092;53.370;-6.588;2023-10-13T16:25:38;0;0;
38288;PMS5003;24092;53.370;-6.588;2023-10-13T16:28:05;1;1;
38288;PMS5003;24092;53.370;-6.588;2023-10-13T16:30:32;1;1;
38288;PMS5003;24092;53.370;-6.588;2023-10-13T16:32:59;2;1;
38288;PMS5003;24092;53.370;-6.588;2023-10-13T16:35:26;0;0;
38288;PMS5003;24092;53.370;-6.588;2023-10-13T16:37:53;1;1;